createdAt,value
2023-09-06T00:01:07.370Z,16.89
2023-09-06T00:03:37.693Z,16.90
2023-09-06T00:06:05.906Z,16.85
2023-09-06T00:08:36.451Z,16.84
2023-09-06T00:11:08.053Z,16.81
2023-09-06T00:13:37.024Z,16.82
2023-09-06T00:16:05.610Z,16.85
2023-09-06T00:18:33.517Z,16.85
2023-09-06T00:21:01.268Z,16.84
2023-09-06T00:23:28.824Z,16.91
2023-09-06T00:25:56.573Z,16.93
2023-09-06T00:28:27.173Z,16.87
2023-09-06T00:30:58.856Z,16.84
2023-09-06T00:33:36.032Z,16.86
2023-09-06T00:36:08.153Z,16.85
2023-09-06T00:38:35.729Z,16.87
2023-09-06T00:41:04.198Z,16.86
2023-09-06T00:43:31.893Z,16.93
2023-09-06T00:46:00.645Z,16.89
2023-09-06T00:48:30.920Z,16.85
2023-09-06T00:50:58.953Z,16.76
2023-09-06T00:53:27.033Z,16.71
2023-09-06T00:55:55.026Z,16.64
2023-09-06T00:58:23.303Z,16.53
2023-09-06T01:00:51.777Z,16.47
2023-09-06T01:03:20.184Z,16.47
2023-09-06T01:05:55.472Z,16.52
2023-09-06T01:08:52.264Z,16.56
2023-09-06T01:11:24.552Z,16.58
2023-09-06T01:13:58.109Z,16.58
2023-09-06T01:16:35.209Z,16.59
2023-09-06T01:19:03.073Z,16.55
2023-09-06T01:21:37.694Z,16.59
2023-09-06T01:24:07.365Z,16.55
2023-09-06T01:26:35.970Z,16.54
2023-09-06T01:29:04.392Z,16.50
2023-09-06T01:31:32.072Z,16.51
2023-09-06T01:33:59.736Z,16.40
2023-09-06T01:36:27.620Z,16.37
2023-09-06T01:38:55.222Z,16.37
2023-09-06T01:41:22.840Z,16.34
2023-09-06T01:43:55.901Z,16.36
2023-09-06T01:46:25.201Z,16.38
2023-09-06T01:48:52.985Z,16.41
2023-09-06T01:51:20.668Z,16.27
2023-09-06T01:53:48.260Z,16.19
2023-09-06T01:56:15.905Z,16.06
2023-09-06T01:58:44.428Z,16.03
2023-09-06T02:01:12.250Z,15.96
2023-09-06T02:03:40.033Z,15.93
2023-09-06T02:06:08.166Z,15.91
2023-09-06T02:08:36.667Z,15.88
2023-09-06T02:11:04.485Z,15.93
2023-09-06T02:13:32.099Z,15.95
2023-09-06T02:16:02.799Z,15.97
2023-09-06T02:18:30.901Z,16.06
2023-09-06T02:20:59.882Z,16.09
2023-09-06T02:23:27.486Z,16.11
2023-09-06T02:25:55.015Z,16.01
2023-09-06T02:28:22.668Z,15.93
2023-09-06T02:30:50.173Z,15.85
2023-09-06T02:33:18.074Z,15.78
2023-09-06T02:35:46.696Z,15.72
2023-09-06T02:38:16.388Z,15.69
2023-09-06T02:40:44.161Z,15.68
2023-09-06T02:43:12.847Z,15.67
2023-09-06T02:45:40.867Z,15.70
2023-09-06T02:48:13.943Z,15.70
2023-09-06T02:50:41.837Z,15.70
2023-09-06T02:53:22.256Z,15.67
2023-09-06T02:55:54.779Z,15.58
2023-09-06T02:58:26.676Z,15.51
2023-09-06T03:01:07.676Z,15.49
2023-09-06T03:03:35.833Z,15.53
2023-09-06T03:06:06.247Z,15.54
2023-09-06T03:08:38.086Z,15.64
2023-09-06T03:11:08.767Z,15.57
2023-09-06T03:13:37.992Z,15.50
2023-09-06T03:16:06.281Z,15.47
2023-09-06T03:18:34.438Z,15.47
2023-09-06T03:21:06.490Z,15.44
2023-09-06T03:23:37.126Z,15.48
2023-09-06T03:26:10.748Z,15.48
2023-09-06T03:28:42.869Z,15.47
2023-09-06T03:31:20.255Z,15.45
2023-09-06T03:33:47.887Z,15.42
2023-09-06T03:36:16.155Z,15.39
2023-09-06T03:38:44.253Z,15.33
2023-09-06T03:41:11.805Z,15.26
2023-09-06T03:43:39.805Z,15.16
2023-09-06T03:46:11.070Z,15.10
2023-09-06T03:48:39.074Z,15.06
2023-09-06T03:51:07.072Z,15.02
2023-09-06T03:53:39.026Z,15.02
2023-09-06T03:56:09.670Z,15.04
2023-09-06T03:58:42.847Z,15.09
2023-09-06T04:01:12.290Z,15.14
2023-09-06T04:03:41.983Z,15.13
2023-09-06T04:06:12.658Z,15.12
2023-09-06T04:08:41.688Z,15.14
2023-09-06T04:11:12.653Z,15.06
2023-09-06T04:13:44.309Z,15.06
2023-09-06T04:16:13.139Z,15.09
2023-09-06T04:18:43.658Z,15.11
2023-09-06T04:21:11.758Z,15.12
2023-09-06T04:23:42.692Z,15.12
2023-09-06T04:26:14.005Z,15.13
2023-09-06T04:28:42.145Z,15.16
2023-09-06T04:31:13.365Z,15.27
2023-09-06T04:33:44.021Z,15.54
2023-09-06T04:36:16.383Z,15.94
2023-09-06T04:38:45.091Z,16.41
2023-09-06T04:41:15.804Z,16.94
2023-09-06T04:43:52.606Z,17.52
2023-09-06T04:46:21.030Z,18.03
2023-09-06T04:48:51.428Z,18.57
2023-09-06T04:51:20.008Z,19.07
2023-09-06T04:53:47.688Z,19.53
2023-09-06T04:56:17.911Z,20.00
2023-09-06T04:58:50.514Z,20.53
2023-09-06T05:01:18.149Z,20.99
2023-09-06T05:03:47.779Z,21.36
2023-09-06T05:06:15.638Z,21.73
2023-09-06T05:08:45.024Z,22.02
2023-09-06T05:11:19.452Z,22.41
2023-09-06T05:13:50.443Z,22.82
2023-09-06T05:16:19.201Z,23.12
2023-09-06T05:18:49.935Z,23.34
2023-09-06T05:21:20.396Z,23.68
2023-09-06T05:23:48.146Z,23.81
2023-09-06T09:02:02.667Z,26.94
2023-09-06T09:04:30.934Z,26.84
2023-09-06T09:06:59.435Z,27.41
2023-09-06T09:09:27.117Z,27.34
2023-09-06T09:11:56.368Z,27.23
2023-09-06T09:14:26.000Z,27.01
2023-09-06T09:16:58.176Z,27.06
2023-09-06T09:19:27.230Z,26.73
2023-09-06T09:21:58.058Z,26.91
2023-09-06T09:24:28.365Z,27.04
2023-09-06T09:27:00.015Z,26.79
2023-09-06T09:29:29.864Z,26.96
2023-09-06T09:32:05.604Z,26.87
2023-09-06T09:34:33.364Z,26.59
2023-09-06T09:37:03.050Z,26.45
2023-09-06T09:39:30.631Z,26.67
2023-09-06T09:42:00.213Z,26.78
2023-09-06T09:44:28.034Z,26.78
2023-09-06T09:46:58.533Z,26.49
2023-09-06T09:49:27.869Z,26.61
2023-09-06T09:51:55.385Z,26.85
2023-09-06T09:54:24.936Z,26.84
2023-09-06T09:57:07.821Z,26.97
2023-09-06T09:59:37.643Z,27.41
2023-09-06T10:02:06.650Z,27.39
2023-09-06T10:04:38.330Z,27.41
2023-09-06T10:07:08.320Z,27.29
2023-09-06T10:09:39.955Z,27.17
2023-09-06T10:12:10.430Z,27.29
2023-09-06T10:14:41.072Z,26.79
2023-09-06T10:17:13.845Z,26.98
2023-09-06T10:19:53.886Z,26.76
2023-09-06T10:22:22.671Z,27.15
2023-09-06T10:24:53.951Z,27.31
2023-09-06T10:27:33.233Z,27.35
2023-09-06T10:30:05.017Z,27.01
2023-09-06T10:32:44.893Z,26.82
2023-09-06T10:35:31.486Z,26.95
2023-09-06T10:38:03.807Z,27.04
2023-09-06T10:40:50.568Z,27.25
2023-09-06T10:43:24.900Z,27.31
2023-09-06T10:46:11.208Z,27.45
2023-09-06T10:48:39.002Z,27.69
2023-09-06T10:51:14.351Z,27.66
2023-09-06T10:53:49.213Z,27.83
2023-09-06T10:56:28.636Z,27.93
2023-09-06T10:58:58.629Z,27.93
2023-09-06T11:01:26.437Z,27.94
2023-09-06T11:03:55.165Z,28.28
2023-09-06T11:06:25.671Z,28.14
2023-09-06T11:08:54.636Z,27.98
2023-09-06T11:11:22.376Z,28.16
2023-09-06T11:13:49.871Z,28.13
2023-09-06T11:16:17.556Z,28.51
2023-09-06T11:18:49.812Z,27.69
2023-09-06T11:21:24.538Z,27.45
2023-09-06T11:23:55.110Z,27.93
2023-09-06T11:26:22.881Z,27.94
2023-09-06T11:29:05.202Z,28.19
2023-09-06T11:31:34.924Z,27.64
2023-09-06T11:34:05.816Z,27.63
2023-09-06T11:36:36.845Z,27.38
2023-09-06T11:39:20.545Z,27.31
2023-09-06T11:41:49.182Z,27.28
2023-09-06T11:44:19.740Z,27.26
2023-09-06T11:46:50.170Z,27.30
2023-09-06T11:49:22.741Z,27.33
2023-09-06T11:51:53.790Z,27.09
2023-09-06T11:54:25.779Z,27.46
2023-09-06T11:56:55.463Z,27.64
2023-09-06T11:59:23.683Z,27.32
2023-09-06T12:02:00.157Z,27.13
2023-09-06T12:04:29.963Z,26.89
2023-09-06T12:06:59.495Z,26.86
2023-09-06T12:09:28.053Z,26.96
2023-09-06T12:11:55.825Z,26.88
2023-09-06T12:14:24.254Z,27.05
2023-09-06T12:16:51.870Z,26.64
2023-09-06T12:19:19.626Z,26.71
2023-09-06T12:21:47.132Z,26.66
2023-09-06T12:24:14.795Z,26.67
2023-09-06T12:26:42.422Z,26.63
2023-09-06T12:29:10.075Z,26.58
2023-09-06T12:31:39.004Z,26.62
2023-09-06T12:34:07.754Z,26.75
2023-09-06T12:36:35.306Z,26.62
2023-09-06T12:39:07.680Z,26.67
2023-09-06T12:41:35.526Z,26.64
2023-09-06T12:44:05.062Z,26.79
2023-09-06T12:46:32.861Z,26.77
2023-09-06T12:49:00.522Z,26.53
2023-09-06T12:51:28.310Z,26.52
2023-09-06T12:53:56.003Z,26.66
2023-09-06T12:56:23.732Z,26.78
2023-09-06T12:58:51.215Z,26.68
2023-09-06T13:01:18.991Z,26.79
2023-09-06T13:03:47.072Z,26.70
2023-09-06T13:06:14.902Z,26.63
2023-09-06T13:08:43.593Z,26.51
2023-09-06T13:11:14.334Z,26.25
2023-09-06T13:13:42.977Z,26.50
2023-09-06T13:16:10.790Z,26.67
2023-09-06T13:18:40.006Z,26.89
2023-09-06T13:21:07.735Z,26.81
2023-09-06T13:23:35.484Z,26.65
2023-09-06T13:26:03.168Z,26.58
2023-09-06T13:28:31.087Z,26.69
2023-09-06T13:30:59.143Z,26.70
2023-09-06T13:33:29.270Z,26.85
2023-09-06T13:35:58.072Z,26.88
2023-09-06T13:38:25.619Z,27.14
2023-09-06T13:40:53.256Z,26.97
2023-09-06T13:43:20.913Z,27.08
2023-09-06T13:45:48.817Z,26.92
2023-09-06T13:48:16.764Z,26.91
2023-09-06T13:50:44.616Z,26.93
2023-09-06T13:53:12.608Z,26.80
2023-09-06T13:55:40.257Z,26.72
2023-09-06T13:58:10.254Z,26.63
2023-09-06T14:00:37.972Z,26.76
2023-09-06T14:03:06.171Z,26.77
2023-09-06T14:05:34.578Z,26.69
2023-09-06T14:08:03.133Z,26.58
2023-09-06T14:10:30.856Z,26.40
2023-09-06T14:12:58.373Z,26.55
2023-09-06T14:15:26.544Z,26.66
2023-09-06T14:17:54.064Z,26.64
2023-09-06T14:20:21.732Z,26.62
2023-09-06T14:22:49.361Z,26.77
2023-09-06T14:25:18.134Z,26.75
2023-09-06T14:27:45.713Z,26.90
2023-09-06T14:30:13.490Z,26.78
2023-09-06T14:32:41.257Z,26.72
2023-09-06T14:35:08.940Z,26.64
2023-09-06T14:37:36.523Z,26.57
2023-09-06T14:40:05.355Z,26.72
2023-09-06T14:42:33.857Z,26.30
2023-09-06T14:45:02.084Z,26.48
2023-09-06T14:47:29.790Z,26.55
2023-09-06T14:49:58.312Z,26.55
2023-09-06T14:52:25.961Z,26.36
2023-09-06T14:54:53.565Z,26.17
2023-09-06T14:57:21.162Z,26.14
2023-09-06T14:59:48.709Z,26.21
2023-09-06T15:02:16.371Z,26.06
2023-09-06T15:04:44.233Z,26.07
2023-09-06T15:07:11.806Z,25.94
2023-09-06T15:09:42.096Z,25.89
2023-09-06T15:12:10.025Z,25.81
2023-09-06T15:14:37.601Z,25.95
2023-09-06T15:17:05.392Z,26.02
2023-09-06T15:19:34.376Z,25.95
2023-09-06T15:22:02.082Z,25.90
2023-09-06T15:24:29.829Z,25.85
2023-09-06T15:26:58.367Z,25.73
2023-09-06T15:29:26.045Z,25.94
2023-09-06T15:31:54.416Z,26.02
2023-09-06T15:34:22.016Z,25.98
2023-09-06T15:36:49.519Z,25.85
2023-09-06T15:39:17.049Z,25.83
2023-09-06T15:41:45.504Z,25.79
2023-09-06T15:44:13.455Z,25.78
2023-09-06T15:46:41.139Z,25.68
2023-09-06T15:49:08.768Z,25.35
2023-09-06T15:51:36.440Z,25.14
2023-09-06T15:54:05.330Z,25.19
2023-09-06T15:56:32.819Z,25.09
2023-09-06T15:59:00.470Z,25.12
2023-09-06T16:01:30.344Z,25.10
2023-09-06T16:03:59.752Z,25.06
2023-09-06T16:06:27.281Z,25.06
2023-09-06T16:08:55.036Z,25.04
2023-09-06T16:11:22.897Z,25.05
2023-09-06T16:13:50.514Z,25.07
2023-09-06T16:16:18.097Z,24.99
2023-09-06T16:18:46.395Z,24.93
2023-09-06T16:21:14.883Z,24.86
2023-09-06T16:23:42.417Z,24.90
2023-09-06T16:26:10.823Z,24.82
2023-09-06T16:28:38.710Z,24.72
2023-09-06T16:31:06.637Z,24.58
2023-09-06T16:33:36.697Z,24.45
2023-09-06T16:36:07.648Z,24.33
2023-09-06T16:38:36.050Z,24.20
2023-09-06T16:41:04.079Z,24.15
2023-09-06T16:43:31.655Z,24.00
2023-09-06T16:45:59.344Z,23.97
2023-09-06T16:48:27.073Z,23.95
2023-09-06T16:50:54.709Z,23.85
2023-09-06T16:53:22.203Z,23.80
2023-09-06T16:55:49.841Z,23.74
2023-09-06T16:58:17.874Z,23.59
2023-09-06T17:00:45.396Z,23.53
2023-09-06T17:03:13.018Z,23.50
2023-09-06T17:05:40.791Z,23.40
2023-09-06T17:08:08.374Z,23.30
2023-09-06T17:10:35.999Z,23.17
2023-09-06T17:13:03.819Z,23.07
2023-09-06T17:15:32.676Z,23.06
2023-09-06T17:18:00.321Z,22.99
2023-09-06T17:20:28.231Z,22.89
2023-09-06T17:22:59.342Z,22.83
2023-09-06T17:25:27.180Z,22.73
2023-09-06T17:27:54.884Z,22.59
2023-09-06T17:30:23.787Z,22.51
2023-09-06T17:33:12.967Z,22.45
2023-09-06T17:35:46.293Z,22.38
2023-09-06T17:38:17.885Z,22.32
2023-09-06T17:40:56.084Z,22.25
2023-09-06T17:43:24.394Z,22.14
2023-09-06T17:45:52.753Z,22.11
2023-09-06T17:48:22.490Z,22.05
2023-09-06T17:50:54.401Z,21.97
2023-09-06T17:53:26.750Z,21.91
2023-09-06T17:56:03.771Z,21.88
2023-09-06T17:58:31.601Z,21.86
2023-09-06T18:01:00.258Z,21.82
2023-09-06T18:03:28.102Z,21.75
2023-09-06T18:06:00.065Z,21.76
2023-09-06T18:08:28.292Z,21.76
2023-09-06T18:10:56.538Z,21.69
2023-09-06T18:13:24.113Z,21.64
2023-09-06T18:15:54.066Z,21.52
2023-09-06T18:18:21.805Z,21.44
2023-09-06T18:20:49.441Z,21.39
2023-09-06T18:23:20.300Z,21.28
2023-09-06T18:25:47.985Z,21.20
2023-09-06T18:28:16.106Z,21.14
2023-09-06T18:30:46.328Z,21.05
2023-09-06T18:33:15.872Z,20.96
2023-09-06T18:35:46.247Z,20.94
2023-09-06T18:38:18.924Z,20.85
2023-09-06T18:40:47.859Z,20.81
2023-09-06T18:43:18.554Z,20.76
2023-09-06T18:45:47.176Z,20.71
2023-09-06T18:48:16.583Z,20.69
2023-09-06T18:50:46.666Z,20.71
2023-09-06T18:53:14.991Z,20.66
2023-09-06T18:55:45.976Z,20.61
2023-09-06T18:58:13.905Z,20.42
2023-09-06T19:00:42.719Z,20.35
2023-09-06T19:03:14.638Z,20.26
2023-09-06T19:05:43.455Z,20.15
2023-09-06T19:08:16.610Z,20.05
2023-09-06T19:10:45.050Z,19.96
2023-09-06T19:13:15.938Z,19.86
2023-09-06T19:15:48.491Z,19.81
2023-09-06T19:18:17.675Z,19.83
2023-09-06T19:20:45.251Z,19.84
2023-09-06T19:23:18.248Z,19.78
2023-09-06T19:25:53.378Z,19.87
2023-09-06T19:28:25.585Z,19.96
2023-09-06T19:30:58.396Z,20.05
2023-09-06T19:33:27.686Z,20.05
2023-09-06T19:35:56.387Z,20.02
2023-09-06T19:38:24.239Z,20.06
2023-09-06T19:40:55.267Z,20.03
2023-09-06T19:43:24.867Z,20.05
2023-09-06T19:45:57.245Z,20.05
2023-09-06T19:48:25.681Z,20.04
2023-09-06T19:50:53.361Z,19.98
2023-09-06T19:53:21.031Z,19.95
2023-09-06T19:55:49.685Z,19.87
2023-09-06T19:58:17.509Z,19.90
2023-09-06T20:00:45.222Z,19.98
2023-09-06T20:03:13.077Z,20.04
2023-09-06T20:05:41.019Z,20.08
2023-09-06T20:08:09.507Z,20.05
2023-09-06T20:10:52.133Z,20.06
2023-09-06T20:13:21.764Z,20.08
2023-09-06T20:15:49.359Z,20.05
2023-09-06T20:18:16.933Z,20.08
2023-09-06T20:20:44.936Z,20.04
2023-09-06T20:23:12.555Z,19.97
2023-09-06T20:25:40.040Z,19.94
2023-09-06T20:28:07.751Z,19.89
2023-09-06T20:30:42.140Z,19.83
2023-09-06T20:33:10.776Z,19.84
2023-09-06T20:35:41.427Z,19.78
2023-09-06T20:38:09.169Z,19.79
2023-09-06T20:40:36.871Z,19.73
2023-09-06T20:43:04.588Z,19.64
2023-09-06T20:45:33.519Z,19.62
2023-09-06T20:48:01.262Z,19.59
2023-09-06T20:50:28.978Z,19.56
2023-09-06T20:52:56.504Z,19.48
2023-09-06T20:55:24.137Z,19.49
2023-09-06T20:57:51.631Z,19.46
2023-09-06T21:00:19.284Z,19.44
2023-09-06T21:02:46.966Z,19.38
2023-09-06T21:05:14.766Z,19.29
2023-09-06T21:07:42.398Z,19.25
2023-09-06T21:10:10.863Z,19.19
2023-09-06T21:12:38.437Z,19.13
2023-09-06T21:15:06.614Z,19.08
2023-09-06T21:17:34.937Z,18.99
2023-09-06T21:20:04.390Z,18.96
2023-09-06T21:22:32.005Z,18.93
2023-09-06T21:24:59.607Z,18.89
2023-09-06T21:27:27.130Z,18.87
2023-09-06T21:29:54.703Z,18.93
2023-09-06T21:32:22.433Z,18.89
2023-09-06T21:34:50.855Z,18.84
2023-09-06T21:37:18.404Z,18.86
2023-09-06T21:39:45.978Z,18.83
2023-09-06T21:42:13.577Z,18.84
2023-09-06T21:44:41.147Z,18.88
2023-09-06T21:47:08.799Z,18.84
2023-09-06T21:49:36.362Z,18.68
2023-09-06T21:52:04.112Z,18.58
2023-09-06T21:54:33.055Z,18.52
2023-09-06T21:57:00.688Z,18.46
2023-09-06T21:59:28.229Z,18.41
2023-09-06T22:01:55.827Z,18.38
2023-09-06T22:04:42.534Z,18.29
2023-09-06T22:07:29.054Z,18.25
2023-09-06T22:10:15.185Z,18.22
2023-09-06T22:13:04.948Z,18.25
2023-09-06T22:15:32.527Z,18.20
2023-09-06T22:18:00.060Z,18.21
2023-09-06T22:20:31.477Z,18.28
2023-09-06T22:22:59.115Z,18.22
2023-09-06T22:25:26.858Z,18.16
2023-09-06T22:27:54.632Z,18.14
2023-09-06T22:30:22.302Z,18.09
2023-09-06T22:32:49.898Z,18.10
2023-09-06T22:35:17.588Z,18.14
2023-09-06T22:37:45.074Z,18.14
2023-09-06T22:40:12.681Z,18.05
2023-09-06T22:42:40.438Z,17.96
2023-09-06T22:45:09.500Z,17.91
2023-09-06T22:47:37.234Z,17.88
2023-09-06T22:50:05.203Z,17.88
2023-09-06T22:52:32.846Z,17.85
2023-09-06T22:55:00.749Z,17.81
2023-09-06T22:57:28.336Z,17.79
2023-09-06T22:59:56.383Z,17.83
2023-09-06T23:02:24.050Z,17.84
2023-09-06T23:04:52.273Z,17.83
2023-09-06T23:07:19.894Z,17.78
2023-09-06T23:09:48.837Z,17.72
2023-09-06T23:12:17.787Z,17.69
2023-09-06T23:14:48.431Z,17.69
2023-09-06T23:17:23.981Z,17.74
2023-09-06T23:19:55.596Z,17.79
2023-09-06T23:22:25.167Z,17.79
2023-09-06T23:24:57.636Z,17.76
2023-09-06T23:27:27.148Z,17.78
2023-09-06T23:30:02.736Z,17.74
2023-09-06T23:32:32.667Z,17.69
2023-09-06T23:35:00.578Z,17.57
2023-09-06T23:37:29.598Z,17.56
2023-09-06T23:40:01.926Z,17.55
2023-09-06T23:42:31.324Z,17.56
2023-09-06T23:44:58.921Z,17.60
2023-09-06T23:47:27.378Z,17.61
2023-09-06T23:49:54.893Z,17.64
2023-09-06T23:52:23.772Z,17.61
2023-09-06T23:54:51.375Z,17.55
2023-09-06T23:57:19.273Z,17.56
2023-09-06T23:59:47.826Z,17.53
